Woodland, Michigan
Current Conditions -  °F | °C
As of 9:13 AM on Monday 20 Oct 2014 (Local Time) from KY70 Reporting Station
Scattered Clouds Scattered Clouds  
Wind Chill: 44°   Ceiling: Unl
Heat Index: 47°   Visibility: 7mi
Dew Point: 46°   Wind: 7mph
Humidity: 93%   Direction: 210°SSW
Pressure: 29.8"   Gusts: NA
Location:  42.73°N, 85.13°W
Report Text: KY70 201313Z AUTO 21006KT 7SM SCT120 09/08 A2980 RMK AO2 T00860075
Loading
Personal Weather Stations






























Interactive Weather Map
Tropical Storm Tracking
New forecast layout! Learn more

10-Day Weather Forecast

Advertisements
Track Severe Weather on mobile